Time;durP1;ratioP1;P1;durP2;ratioP2;P2;SDS_P1;SDS_P2;PMS_P1;PMS_P2;Temp;Humidity;BMP_temperature;BMP_pressure;BME280_temperature;BME280_humidity;BME280_pressure;Samples;Min_cycle;Max_cycle;Signal;HPM_P1;HPM_P2
2022/04/19 00:00:10;;;;;;;10.35;5.85;;;;;;;4.14;92.36;101619.09;4960611;28;20039;-75
2022/04/19 00:02:36;;;;;;;12.60;6.38;;;;;;;4.08;91.95;101608.13;4954097;28;20034;-75
2022/04/19 00:05:02;;;;;;;11.20;6.15;;;;;;;4.12;92.32;101611.41;4967170;28;20053;-77
2022/04/19 00:07:28;;;;;;;11.82;6.57;;;;;;;4.09;92.18;101611.59;4960260;28;20089;-76
2022/04/19 00:09:54;;;;;;;10.98;5.85;;;;;;;4.08;92.11;101617.69;4947359;28;20047;-77
2022/04/19 00:12:19;;;;;;;9.75;5.40;;;;;;;4.12;92.85;101605.38;4959264;28;20041;-76
2022/04/19 00:14:47;;;;;;;10.88;5.80;;;;;;;4.13;93.31;101613.09;4944703;28;20060;-78
2022/04/19 00:17:13;;;;;;;9.73;4.55;;;;;;;4.15;93.50;101608.66;4952543;28;20109;-77
2022/04/19 00:19:40;;;;;;;7.35;4.43;;;;;;;4.20;93.15;101613.56;4965152;28;20035;-78
2022/04/19 00:22:05;;;;;;;6.75;3.72;;;;;;;4.15;93.54;101615.59;4950348;28;20043;-75
2022/04/19 00:24:31;;;;;;;7.97;3.72;;;;;;;4.19;92.15;101615.34;4971335;28;20039;-77
2022/04/19 00:26:56;;;;;;;4.95;3.10;;;;;;;4.05;93.51;101605.72;4941074;28;20073;-76
2022/04/19 00:29:22;;;;;;;5.60;3.50;;;;;;;4.08;93.29;101610.72;4949449;28;20865;-76
2022/04/19 00:31:47;;;;;;;5.53;3.17;;;;;;;3.99;92.78;101611.22;4932416;29;20054;-76
2022/04/19 00:34:15;;;;;;;3.75;2.80;;;;;;;3.92;93.21;101606.44;4933961;28;20043;-77
2022/04/19 00:36:40;;;;;;;6.75;3.75;;;;;;;3.88;93.49;101606.63;4952280;28;20116;-76
2022/04/19 00:39:06;;;;;;;5.80;2.97;;;;;;;3.80;93.87;101611.38;4950610;28;20618;-76
2022/04/19 00:41:32;;;;;;;5.68;3.00;;;;;;;3.79;94.32;101612.31;4927635;28;20035;-77
2022/04/19 00:43:57;;;;;;;5.45;2.65;;;;;;;3.80;94.08;101602.75;4922046;29;20043;-76
2022/04/19 00:46:24;;;;;;;4.40;2.78;;;;;;;3.76;94.82;101604.66;4968577;28;20043;-76
2022/04/19 00:48:52;;;;;;;4.18;2.70;;;;;;;3.74;94.51;101603.91;4964202;28;21120;-77
2022/04/19 00:51:20;;;;;;;4.45;2.40;;;;;;;3.64;94.01;101594.94;4948106;28;20045;-76
2022/04/19 00:53:47;;;;;;;6.45;2.38;;;;;;;3.60;93.56;101590.81;4950861;28;20034;-77
2022/04/19 00:56:15;;;;;;;5.93;2.53;;;;;;;3.59;93.49;101591.75;4932498;28;20039;-76
2022/04/19 00:58:42;;;;;;;4.22;2.22;;;;;;;3.55;93.07;101596.25;4947501;28;20126;-79
2022/04/19 01:01:09;;;;;;;4.93;2.67;;;;;;;3.53;92.39;101598.09;4947110;28;20047;-79
2022/04/19 01:03:37;;;;;;;4.22;2.20;;;;;;;3.51;93.72;101598.16;4949819;28;20053;-79
2022/04/19 01:06:10;;;;;;;5.57;2.40;;;;;;;3.55;93.58;101598.84;4964549;28;20043;-77
2022/04/19 01:08:36;;;;;;;4.80;2.53;;;;;;;3.50;93.28;101596.50;4944049;28;20039;-78
2022/04/19 01:14:02;;;;;;;2.95;2.28;;;;;;;3.45;94.78;101592.47;4960102;28;20053;-77
2022/04/19 01:16:28;;;;;;;5.70;2.10;;;;;;;3.42;95.18;101595.22;4951023;28;20092;-77
2022/04/19 01:18:56;;;;;;;5.40;2.53;;;;;;;3.22;95.36;101588.47;4964229;28;20049;-80
2022/04/19 01:21:21;;;;;;;3.85;2.22;;;;;;;3.24;96.48;101604.78;4945554;28;20042;-78
2022/04/19 01:23:49;;;;;;;2.83;2.40;;;;;;;3.19;97.22;101596.41;4969302;28;20181;-78
2022/04/19 01:26:17;;;;;;;6.50;2.45;;;;;;;3.20;97.74;101600.66;4947498;28;20042;-78
2022/04/19 01:28:43;;;;;;;5.30;2.38;;;;;;;3.14;97.75;101588.03;4954205;28;20028;-76
2022/04/19 01:31:10;;;;;;;6.65;2.80;;;;;;;3.16;98.07;101597.38;4954063;28;20528;-78
2022/04/19 01:33:43;;;;;;;5.78;2.75;;;;;;;3.08;98.57;101596.94;4950654;28;20042;-78
2022/04/19 01:36:09;;;;;;;7.18;2.90;;;;;;;3.10;98.48;101588.16;4969698;28;20046;-77
2022/04/19 01:38:38;;;;;;;5.15;2.90;;;;;;;3.17;98.49;101591.28;4968634;28;20452;-78
2022/04/19 01:41:04;;;;;;;4.50;2.75;;;;;;;3.06;98.26;101591.81;4939470;28;20640;-77
2022/04/19 01:43:47;;;;;;;4.35;3.10;;;;;;;3.03;98.63;101588.56;4956552;28;20039;-78
2022/04/19 01:46:16;;;;;;;5.68;3.47;;;;;;;2.96;99.30;101582.00;4951309;28;20059;-78
2022/04/19 01:48:42;;;;;;;7.30;2.80;;;;;;;2.96;99.49;101594.94;4954190;28;20031;-78
2022/04/19 01:51:08;;;;;;;7.63;3.35;;;;;;;2.91;99.82;101588.25;4951957;28;20043;-78
2022/04/19 01:53:34;;;;;;;5.50;3.20;;;;;;;2.98;99.79;101596.56;4953665;28;20030;-78
2022/04/19 01:55:59;;;;;;;6.45;2.83;;;;;;;2.87;100.00;101594.50;4966757;28;20544;-78
2022/04/19 01:58:45;;;;;;;6.22;3.42;;;;;;;2.91;100.00;101595.19;4961778;28;20038;-77
2022/04/19 02:01:12;;;;;;;4.47;2.60;;;;;;;2.82;100.00;101590.47;4934241;28;20035;-78
2022/04/19 02:03:39;;;;;;;4.25;2.50;;;;;;;2.72;100.00;101574.53;4932157;28;20094;-78
2022/04/19 02:06:10;;;;;;;4.32;2.90;;;;;;;2.71;100.00;101591.84;4967746;28;20055;-78
2022/04/19 02:08:38;;;;;;;5.00;2.58;;;;;;;2.70;100.00;101595.31;4956465;28;20034;-79
2022/04/19 02:11:06;;;;;;;4.32;2.53;;;;;;;2.65;100.00;101591.28;4965501;28;20646;-79
2022/04/19 02:13:32;;;;;;;4.90;2.80;;;;;;;2.64;100.00;101594.81;4949426;28;20035;-77
2022/04/19 02:15:58;;;;;;;5.28;2.60;;;;;;;2.56;100.00;101582.19;4959341;28;20081;-78
2022/04/19 02:18:26;;;;;;;6.97;2.80;;;;;;;2.55;100.00;101585.72;4960664;28;20062;-78
2022/04/19 02:20:52;;;;;;;5.50;2.50;;;;;;;2.49;100.00;101591.19;4953658;28;20034;-77
2022/04/19 02:23:18;;;;;;;7.40;2.83;;;;;;;2.48;100.00;101590.34;4955289;28;21725;-78
2022/04/19 02:25:45;;;;;;;4.40;2.60;;;;;;;2.41;100.00;101581.22;4970829;28;20039;-77
2022/04/19 02:28:13;;;;;;;3.65;2.65;;;;;;;2.38;100.00;101586.53;4963408;28;20046;-77
2022/04/19 02:30:43;;;;;;;5.60;3.08;;;;;;;2.41;100.00;101595.88;4963553;28;20536;-77
2022/04/19 02:33:18;;;;;;;7.13;3.25;;;;;;;2.36;100.00;101584.94;4955807;28;20745;-77
2022/04/19 02:35:45;;;;;;;10.65;3.10;;;;;;;2.36;100.00;101582.34;4972924;28;20027;-78
2022/04/19 02:38:15;;;;;;;6.22;3.10;;;;;;;2.32;100.00;101586.81;4960444;28;20101;-77
2022/04/19 02:40:45;;;;;;;4.22;2.88;;;;;;;2.32;100.00;101589.41;4965319;28;20030;-77
2022/04/19 02:43:13;;;;;;;6.63;2.90;;;;;;;2.31;100.00;101593.72;4937468;28;20034;-78
2022/04/19 02:45:41;;;;;;;6.90;3.00;;;;;;;2.28;100.00;101586.13;4945268;28;20171;-77
2022/04/19 02:48:08;;;;;;;5.85;3.08;;;;;;;2.27;100.00;101592.19;4945690;28;20050;-78
2022/04/19 02:50:45;;;;;;;4.57;3.22;;;;;;;2.29;100.00;101589.53;4932049;28;20502;-77
2022/04/19 02:53:11;;;;;;;6.10;3.13;;;;;;;2.17;100.00;101590.97;4969594;28;20047;-76
2022/04/19 02:55:38;;;;;;;6.97;3.13;;;;;;;2.14;100.00;101591.94;4958046;28;20030;-78
2022/04/19 02:58:06;;;;;;;7.97;3.72;;;;;;;2.12;100.00;101588.56;4951637;28;20031;-80
2022/04/19 03:00:32;;;;;;;5.60;3.30;;;;;;;2.20;100.00;101598.56;4937866;28;20452;-78
2022/04/19 03:02:58;;;;;;;9.57;3.47;;;;;;;2.19;100.00;101590.91;4957424;28;20067;-77
2022/04/19 03:05:24;;;;;;;5.18;3.33;;;;;;;2.21;100.00;101586.47;4953820;28;20062;-77
2022/04/19 03:07:49;;;;;;;12.30;3.63;;;;;;;2.24;100.00;101592.38;4948590;28;20405;-77
2022/04/19 03:10:16;;;;;;;5.65;3.17;;;;;;;2.23;100.00;101589.84;4949880;28;20186;-77
2022/04/19 03:12:45;;;;;;;4.95;3.05;;;;;;;2.23;100.00;101588.09;4960827;28;20121;-77
2022/04/19 03:15:20;;;;;;;8.65;3.60;;;;;;;2.18;100.00;101584.88;4965505;28;20055;-78
2022/04/19 03:17:47;;;;;;;8.00;3.25;;;;;;;2.15;100.00;101587.59;4968382;28;20093;-77
2022/04/19 03:20:16;;;;;;;6.30;3.60;;;;;;;2.09;100.00;101585.28;4947250;28;20073;-79
2022/04/19 03:28:17;;;;;;;4.93;3.38;;;;;;;2.13;100.00;101572.16;4964475;28;20519;-77
2022/04/19 03:30:43;;;;;;;6.22;3.47;;;;;;;2.13;100.00;101579.91;4952666;28;20045;-76
2022/04/19 03:33:10;;;;;;;7.95;3.50;;;;;;;2.04;100.00;101571.75;4962683;28;20119;-77
2022/04/19 03:35:36;;;;;;;5.88;3.50;;;;;;;2.06;100.00;101586.28;4951348;28;20121;-77
2022/04/19 03:38:06;;;;;;;5.55;3.10;;;;;;;2.05;100.00;101587.16;4960333;28;20038;-76
2022/04/19 03:40:33;;;;;;;4.28;3.40;;;;;;;2.00;100.00;101577.94;4949327;29;20042;-77
2022/04/19 03:43:02;;;;;;;6.80;4.00;;;;;;;1.97;100.00;101580.69;4957690;28;20042;-76
2022/04/19 03:45:28;;;;;;;8.73;4.00;;;;;;;1.90;100.00;101587.88;4948220;28;20521;-77
2022/04/19 03:47:54;;;;;;;5.47;3.55;;;;;;;1.86;100.00;101592.34;4977122;28;20054;-77
2022/04/19 03:50:20;;;;;;;5.85;3.63;;;;;;;1.83;100.00;101589.94;4949459;28;20092;-77
2022/04/19 03:52:46;;;;;;;5.47;3.80;;;;;;;1.80;100.00;101586.63;4950648;28;20067;-76
2022/04/19 03:55:12;;;;;;;5.57;3.90;;;;;;;1.86;100.00;101586.34;4951061;28;20042;-77
2022/04/19 03:57:38;;;;;;;7.85;3.75;;;;;;;1.83;100.00;101583.88;4951812;28;20038;-76
2022/04/19 04:00:10;;;;;;;5.88;4.20;;;;;;;1.86;100.00;101591.53;4954325;28;20043;-77
2022/04/19 04:02:45;;;;;;;8.02;4.03;;;;;;;1.82;100.00;101587.41;4964169;28;21774;-75
2022/04/19 04:05:18;;;;;;;;;;;;;;;1.79;100.00;101588.38;4960923;28;20038;-77
2022/04/19 04:07:45;;;;;;;8.20;4.10;;;;;;;1.74;100.00;101582.56;4951218;28;19929;-77
2022/04/19 04:10:15;;;;;;;7.70;3.92;;;;;;;1.68;100.00;101572.50;4953029;28;20121;-77
2022/04/19 04:12:42;;;;;;;9.60;4.10;;;;;;;1.83;100.00;101592.50;4951261;28;20523;-74
2022/04/19 04:15:09;;;;;;;8.32;3.97;;;;;;;1.85;100.00;101590.69;4947646;28;20511;-75
2022/04/19 04:17:35;;;;;;;9.02;4.15;;;;;;;1.71;100.00;101573.22;4935691;28;20042;-77
2022/04/19 04:20:01;;;;;;;11.27;4.80;;;;;;;1.85;100.00;101592.44;4959608;28;20429;-75
2022/04/19 04:22:27;;;;;;;10.20;5.25;;;;;;;1.78;100.00;101580.69;4947900;28;20038;-76
2022/04/19 04:24:54;;;;;;;11.40;5.30;;;;;;;1.86;100.00;101592.34;4952226;28;20049;-74
2022/04/19 04:27:20;;;;;;;11.23;4.68;;;;;;;1.83;100.00;101591.66;4958298;28;20073;-75
2022/04/19 04:29:47;;;;;;;8.23;4.20;;;;;;;1.86;100.00;101588.94;4956059;28;20117;-75
2022/04/19 04:32:12;;;;;;;13.20;4.53;;;;;;;1.90;100.00;101593.91;4947585;28;20034;-75
2022/04/19 04:34:39;;;;;;;15.70;4.13;;;;;;;1.97;100.00;101583.28;4924399;29;20034;-76
2022/04/19 04:37:06;;;;;;;12.55;4.63;;;;;;;2.13;100.00;101597.19;4922915;28;20110;-76
2022/04/19 04:39:37;;;;;;;13.32;4.82;;;;;;;2.20;100.00;101597.75;4948502;28;20023;-74
2022/04/19 04:42:34;;;;;;;13.70;4.80;;;;;;;2.35;100.00;101594.44;4950209;28;20035;-76
2022/04/19 04:45:08;;;;;;;9.43;4.60;;;;;;;2.46;100.00;101594.75;4944218;28;20492;-77
2022/04/19 04:50:19;;;;;;;11.40;4.50;;;;;;;2.67;100.00;101594.63;4944287;28;20064;-75
2022/04/19 04:52:46;;;;;;;12.13;5.10;;;;;;;2.75;100.00;101609.81;4951736;28;20042;-76
2022/04/19 04:55:13;;;;;;;10.57;5.15;;;;;;;2.80;100.00;101600.06;4958775;28;20039;-75
2022/04/19 04:57:38;;;;;;;9.40;5.15;;;;;;;2.95;100.00;101606.25;4942034;28;20039;-76
2022/04/19 05:00:05;;;;;;;11.70;4.78;;;;;;;3.02;100.00;101613.63;4946117;28;20038;-76
2022/04/19 05:02:51;;;;;;;16.63;5.15;;;;;;;3.00;100.00;101612.06;4953747;28;20085;-77
2022/04/19 05:05:17;;;;;;;18.65;4.95;;;;;;;3.05;100.00;101600.53;4958367;28;20035;-76
2022/04/19 05:07:43;;;;;;;15.63;5.13;;;;;;;3.05;100.00;101597.09;4951412;28;20066;-78
2022/04/19 05:10:09;;;;;;;15.10;5.57;;;;;;;3.15;100.00;101600.09;4966378;28;20045;-76
2022/04/19 05:12:35;;;;;;;16.52;5.28;;;;;;;3.28;100.00;101603.72;4941872;28;20462;-79
2022/04/19 05:15:01;;;;;;;14.50;5.68;;;;;;;3.40;100.00;101607.44;4930604;28;20114;-77
2022/04/19 05:17:34;;;;;;;17.15;4.80;;;;;;;3.47;100.00;101593.25;4933242;29;20571;-77
2022/04/19 05:20:01;;;;;;;16.20;5.10;;;;;;;3.72;100.00;101610.13;4946426;28;20039;-76
2022/04/19 05:22:26;;;;;;;20.52;4.95;;;;;;;3.79;100.00;101609.72;4949776;28;20451;-78
2022/04/19 05:24:54;;;;;;;22.15;5.25;;;;;;;3.91;100.00;101613.41;4948839;28;20113;-77
2022/04/19 05:27:19;;;;;;;18.25;5.28;;;;;;;4.14;97.74;101609.56;4949971;28;20467;-76
2022/04/19 05:29:47;;;;;;;17.10;4.32;;;;;;;4.22;98.15;101617.78;4949231;28;20043;-77
2022/04/19 05:32:13;;;;;;;16.08;4.43;;;;;;;4.26;96.04;101614.09;4938616;28;20058;-76
2022/04/19 05:34:39;;;;;;;15.45;4.60;;;;;;;4.43;95.11;101614.94;4943084;28;20521;-77
2022/04/19 05:37:05;;;;;;;18.98;5.00;;;;;;;4.58;94.63;101626.22;4961707;28;20035;-77
2022/04/19 05:39:31;;;;;;;17.85;4.85;;;;;;;4.68;94.69;101616.97;4951606;28;20031;-78
2022/04/19 05:41:57;;;;;;;14.63;4.43;;;;;;;4.78;90.62;101604.28;4969691;28;20428;-77
2022/04/19 05:44:22;;;;;;;9.27;4.30;;;;;;;4.90;90.89;101611.41;4957161;28;20039;-78
2022/04/19 05:46:51;;;;;;;9.90;3.83;;;;;;;5.00;88.29;101604.72;4953891;28;20514;-79
2022/04/19 05:49:16;;;;;;;8.95;3.60;;;;;;;5.16;86.39;101609.88;4947912;28;20043;-79
2022/04/19 05:51:46;;;;;;;6.10;2.75;;;;;;;5.18;82.51;101609.78;4950729;29;20023;-76
2022/04/19 05:54:11;;;;;;;6.07;3.53;;;;;;;5.25;81.21;101601.53;4953328;28;20047;-79
2022/04/19 05:56:38;;;;;;;4.97;3.20;;;;;;;5.36;80.54;101611.28;4951228;28;20054;-78
2022/04/19 05:59:05;;;;;;;4.82;3.28;;;;;;;5.52;79.69;101613.81;4969345;28;20089;-78
2022/04/19 06:04:51;;;;;;;3.42;2.90;;;;;;;5.60;78.42;101608.16;4943914;29;20043;-77
2022/04/19 06:07:02;;;;;;;3.17;2.70;;;;;;;5.66;78.80;101623.41;4984796;28;20042;-80
2022/04/19 06:09:29;;;;;;;4.82;2.88;;;;;;;5.73;78.20;101619.50;4975140;28;20042;-76
2022/04/19 06:11:54;;;;;;;5.20;2.95;;;;;;;5.87;76.54;101625.63;4955021;28;20030;-79
2022/04/19 06:14:20;;;;;;;5.88;2.80;;;;;;;5.71;75.28;101621.34;4951049;28;20112;-77
2022/04/19 06:16:46;;;;;;;3.40;2.65;;;;;;;5.79;75.59;101629.53;4947488;28;20042;-77
2022/04/19 06:19:12;;;;;;;5.53;3.10;;;;;;;5.76;75.83;101631.47;4929491;28;20050;-78
2022/04/19 06:21:39;;;;;;;5.63;2.92;;;;;;;5.79;76.31;101626.91;4966251;28;20046;-78
2022/04/19 06:24:05;;;;;;;3.58;2.70;;;;;;;5.89;74.99;101639.38;4953984;28;20134;-78
2022/04/19 06:26:31;;;;;;;4.15;2.72;;;;;;;5.99;73.99;101643.09;4946651;28;20576;-79
2022/04/19 06:29:01;;;;;;;6.38;2.70;;;;;;;6.06;73.70;101644.41;4932295;28;20053;-78
2022/04/19 06:31:36;;;;;;;4.00;2.70;;;;;;;6.08;73.42;101637.34;4971123;28;20578;-77
2022/04/19 06:34:12;;;;;;;3.60;2.45;;;;;;;6.16;71.69;101640.31;4972074;28;20538;-78
2022/04/19 06:36:54;;;;;;;6.13;2.88;;;;;;;6.24;72.57;101640.66;4966046;28;20405;-77
2022/04/19 06:39:20;;;;;;;5.80;2.58;;;;;;;6.37;71.40;101642.50;4963167;28;20038;-78
2022/04/19 06:41:46;;;;;;;5.22;2.70;;;;;;;6.45;71.11;101642.03;4954267;28;20116;-81
2022/04/19 06:44:13;;;;;;;4.85;2.17;;;;;;;6.61;68.26;101638.34;4949231;28;20477;-77
2022/04/19 06:46:39;;;;;;;6.10;2.45;;;;;;;6.63;68.84;101644.28;4937558;28;20045;-78
2022/04/19 06:49:12;;;;;;;3.63;2.50;;;;;;;6.67;68.22;101644.06;4951190;28;20507;-77
2022/04/19 06:51:38;;;;;;;5.07;2.65;;;;;;;6.50;67.45;101648.63;4935843;29;20050;-77
2022/04/19 06:54:12;;;;;;;3.35;2.35;;;;;;;6.77;67.76;101645.16;4950399;28;20050;-79
2022/04/19 06:56:46;;;;;;;4.07;2.40;;;;;;;6.92;68.34;101649.38;4960014;28;20035;-78
2022/04/19 06:59:14;;;;;;;3.72;2.35;;;;;;;7.16;66.69;101654.75;4968355;28;20039;-78
2022/04/19 07:01:44;;;;;;;4.57;2.47;;;;;;;7.24;64.12;101649.00;4957611;28;20039;-78
2022/04/19 07:04:29;;;;;;;7.75;2.92;;;;;;;7.28;67.00;101642.66;4969374;28;20035;-78
2022/04/19 07:06:58;;;;;;;3.95;2.60;;;;;;;7.55;65.79;101641.72;4962084;28;20077;-78
2022/04/19 07:09:26;;;;;;;3.45;2.55;;;;;;;7.75;64.82;101656.84;4959464;28;20046;-76
2022/04/19 07:11:52;;;;;;;2.83;2.10;;;;;;;7.92;63.26;101666.13;4938420;29;20043;-79
2022/04/19 07:14:22;;;;;;;5.18;2.92;;;;;;;7.92;62.32;101663.53;4975337;28;20038;-78
2022/04/19 07:17:09;;;;;;;4.68;2.92;;;;;;;7.84;63.78;101662.41;4972773;28;20051;-78
2022/04/19 07:28:20;;;;;;;7.45;2.90;;;;;;;7.98;63.06;101657.03;4951060;28;20122;-78
2022/04/19 07:30:47;;;;;;;4.80;2.65;;;;;;;8.13;62.31;101666.41;4941109;28;20041;-81
2022/04/19 07:33:16;;;;;;;6.20;2.97;;;;;;;8.18;63.09;101646.00;4947900;28;20047;-78
2022/04/19 07:35:44;;;;;;;7.13;3.60;;;;;;;8.17;62.24;101661.81;4958488;28;20031;-77
2022/04/19 07:38:11;;;;;;;3.70;2.65;;;;;;;8.15;63.88;101661.06;4950213;28;20126;-79
2022/04/19 07:40:57;;;;;;;5.00;2.90;;;;;;;8.56;63.04;101662.56;4959722;28;20055;-77
2022/04/19 07:43:24;;;;;;;4.50;2.90;;;;;;;8.84;62.14;101669.22;4941104;28;20045;-80
2022/04/19 07:45:51;;;;;;;3.97;2.47;;;;;;;8.96;60.80;101670.94;4949926;28;20050;-78
2022/04/19 07:48:18;;;;;;;5.13;2.67;;;;;;;9.06;61.31;101672.88;4956368;28;20051;-79
2022/04/19 07:50:45;;;;;;;4.03;2.33;;;;;;;9.01;59.49;101665.38;4975288;28;20046;-77
2022/04/19 07:53:11;;;;;;;4.75;2.20;;;;;;;9.38;55.64;101669.63;4969949;28;20053;-77
2022/04/19 07:55:41;;;;;;;4.25;2.28;;;;;;;9.13;57.45;101661.81;4965374;28;20042;-79
2022/04/19 07:58:08;;;;;;;3.08;1.80;;;;;;;9.45;56.72;101666.41;4959584;28;20046;-79
2022/04/19 08:00:34;;;;;;;3.47;1.92;;;;;;;9.78;54.74;101663.97;4956813;28;20097;-79
2022/04/19 08:03:01;;;;;;;3.67;2.15;;;;;;;9.92;56.08;101661.09;4972537;28;20046;-78
2022/04/19 08:05:28;;;;;;;3.75;2.03;;;;;;;9.92;56.83;101658.47;4959959;28;20051;-78
2022/04/19 08:07:57;;;;;;;2.53;1.60;;;;;;;10.10;55.92;101667.53;4960939;28;20066;-79
2022/04/19 08:10:24;;;;;;;4.00;2.10;;;;;;;10.10;56.75;101659.66;4976104;28;20039;-77
2022/04/19 08:12:51;;;;;;;3.83;2.47;;;;;;;10.27;55.74;101660.94;4935664;29;20117;-77
2022/04/19 08:15:18;;;;;;;4.28;2.80;;;;;;;10.19;54.85;101663.34;4953379;28;20030;-79
2022/04/19 08:17:44;;;;;;;4.63;2.40;;;;;;;10.39;57.24;101661.78;4957849;28;20114;-79
2022/04/19 08:20:13;;;;;;;3.97;2.30;;;;;;;10.56;57.83;101649.94;4957365;28;20039;-78
2022/04/19 08:22:42;;;;;;;5.45;2.53;;;;;;;10.63;56.56;101645.88;4943644;28;20049;-78
2022/04/19 08:25:14;;;;;;;5.13;2.88;;;;;;;10.81;56.05;101651.41;4959125;28;20034;-78
2022/04/19 08:27:42;;;;;;;6.28;2.67;;;;;;;10.93;55.44;101648.75;4948655;28;20054;-80
2022/04/19 08:30:09;;;;;;;3.38;2.35;;;;;;;10.88;57.92;101649.09;4934629;28;20039;-78
2022/04/19 08:32:36;;;;;;;7.43;2.60;;;;;;;10.87;57.16;101647.44;4950733;28;20061;-81
2022/04/19 08:35:01;;;;;;;5.53;2.80;;;;;;;11.01;58.48;101649.75;4950455;28;20038;-78
2022/04/19 08:37:31;;;;;;;4.97;3.20;;;;;;;11.16;58.67;101647.66;4966591;28;20035;-79
2022/04/19 08:39:58;;;;;;;5.03;2.70;;;;;;;11.12;56.82;101642.78;4942483;28;20507;-79
2022/04/19 08:42:26;;;;;;;5.00;2.97;;;;;;;11.28;56.94;101641.38;4943756;28;20101;-80
2022/04/19 08:44:52;;;;;;;6.13;2.92;;;;;;;11.43;56.58;101636.63;4960423;28;20106;-76
2022/04/19 08:47:18;;;;;;;10.80;3.35;;;;;;;11.71;56.70;101646.56;4949768;28;20625;-79
2022/04/19 08:49:44;;;;;;;4.18;2.65;;;;;;;11.90;56.07;101638.78;4962908;28;20031;-80
2022/04/19 08:52:10;;;;;;;4.20;2.40;;;;;;;12.02;56.04;101639.53;4950523;28;20042;-79
2022/04/19 08:57:29;;;;;;;4.07;2.67;;;;;;;11.96;55.71;101637.41;4966537;28;20031;-79
2022/04/19 08:59:55;;;;;;;4.18;2.53;;;;;;;12.27;57.45;101643.47;4954049;28;20516;-76
2022/04/19 09:02:25;;;;;;;4.55;2.45;;;;;;;12.44;56.10;101653.31;4965677;28;20137;-79
2022/04/19 09:04:52;;;;;;;6.78;2.65;;;;;;;12.40;55.27;101640.56;4955783;28;20642;-78
2022/04/19 09:07:19;;;;;;;6.97;2.83;;;;;;;12.29;55.68;101649.41;4961167;28;20150;-76
2022/04/19 09:09:59;;;;;;;7.90;2.65;;;;;;;12.35;55.50;101646.22;4957325;28;20081;-79
2022/04/19 09:12:25;;;;;;;7.53;3.00;;;;;;;12.44;57.88;101641.97;4966337;28;20488;-78
2022/04/19 09:15:03;;;;;;;7.97;2.78;;;;;;;12.61;57.55;101650.97;4970396;28;20038;-78
2022/04/19 09:17:31;;;;;;;7.32;2.80;;;;;;;12.92;59.16;101646.41;4944272;28;20067;-77
2022/04/19 09:20:19;;;;;;;7.35;2.55;;;;;;;12.79;55.22;101651.97;4955241;28;20130;-79
2022/04/19 09:22:48;;;;;;;5.43;2.47;;;;;;;12.75;56.80;101653.22;4961488;28;20489;-77
2022/04/19 09:25:19;;;;;;;11.00;2.90;;;;;;;12.71;54.27;101648.34;4974577;28;20094;-77
2022/04/19 09:27:46;;;;;;;5.90;2.60;;;;;;;12.92;53.42;101653.47;4960976;28;20039;-78
2022/04/19 09:30:23;;;;;;;13.57;2.97;;;;;;;13.15;55.06;101654.00;4960039;28;20062;-78
2022/04/19 09:33:10;;;;;;;7.20;2.35;;;;;;;13.30;54.00;101649.09;4959374;28;20070;-78
2022/04/19 09:35:55;;;;;;;5.43;2.63;;;;;;;13.09;52.12;101658.03;4979696;28;20035;-77
2022/04/19 09:38:42;;;;;;;5.78;2.97;;;;;;;12.88;52.73;101654.72;4926554;28;20571;-82
2022/04/19 09:41:16;;;;;;;9.38;2.70;;;;;;;12.96;52.65;101649.56;4972672;28;20041;-78
2022/04/19 09:43:41;;;;;;;4.90;2.63;;;;;;;12.95;53.47;101658.47;4957101;28;20034;-77
2022/04/19 09:46:07;;;;;;;3.67;2.20;;;;;;;12.81;54.24;101644.75;4956960;28;20093;-81
2022/04/19 09:48:36;;;;;;;5.95;2.55;;;;;;;12.84;53.10;101646.25;4956611;28;20126;-76
2022/04/19 09:51:07;;;;;;;5.45;2.63;;;;;;;13.23;52.66;101649.69;4950755;28;20039;-79
2022/04/19 09:53:48;;;;;;;3.50;2.30;;;;;;;13.51;53.54;101654.25;4963270;28;20035;-77
2022/04/19 09:56:24;;;;;;;5.35;2.80;;;;;;;13.15;51.83;101652.19;4947754;28;20182;-77
2022/04/19 09:58:51;;;;;;;5.70;2.45;;;;;;;13.28;52.87;101653.69;4939600;28;20039;-76
2022/04/19 10:09:34;;;;;;;6.93;2.83;;;;;;;14.11;52.38;101644.13;4959814;28;20050;-79
2022/04/19 10:12:04;;;;;;;4.18;2.10;;;;;;;14.22;51.78;101643.06;4969591;28;20149;-75
2022/04/19 10:14:31;;;;;;;6.22;2.28;;;;;;;14.11;49.59;101646.75;4944364;28;20043;-77
2022/04/19 10:17:04;;;;;;;6.30;2.42;;;;;;;13.99;50.27;101643.50;4967362;28;20042;-81
2022/04/19 10:19:31;;;;;;;4.05;2.22;;;;;;;14.19;51.52;101638.09;4956946;28;20409;-79
2022/04/19 10:22:05;;;;;;;4.57;1.83;;;;;;;13.90;51.07;101639.09;4963233;28;20511;-78
2022/04/19 10:24:44;;;;;;;4.38;2.00;;;;;;;13.96;51.92;101645.59;4967505;28;20039;-77
2022/04/19 10:27:13;;;;;;;7.22;2.05;;;;;;;14.07;50.90;101639.28;4967422;28;20031;-78
2022/04/19 10:29:39;;;;;;;5.68;1.90;;;;;;;14.33;50.91;101639.38;4981251;28;20034;-78
2022/04/19 10:32:07;;;;;;;5.20;1.90;;;;;;;14.26;50.65;101636.53;4940898;28;20057;-77
2022/04/19 10:34:38;;;;;;;4.32;1.88;;;;;;;14.31;50.54;101642.16;4944588;28;20042;-79
2022/04/19 10:37:19;;;;;;;5.85;2.15;;;;;;;14.64;50.75;101649.63;4948795;28;20035;-78
2022/04/19 10:39:47;;;;;;;6.40;1.98;;;;;;;14.21;49.94;101647.50;4949396;28;20035;-78
2022/04/19 10:42:33;;;;;;;4.20;1.85;;;;;;;13.94;50.35;101639.63;4965754;28;20039;-78
2022/04/19 10:45:14;;;;;;;3.38;2.00;;;;;;;14.31;50.29;101636.91;4952093;28;20050;-77
2022/04/19 10:47:51;;;;;;;3.47;1.67;;;;;;;14.21;51.25;101641.41;4945382;28;20038;-78
2022/04/19 10:50:29;;;;;;;3.65;2.03;;;;;;;14.41;51.46;101642.13;4963305;28;20062;-78
2022/04/19 10:53:03;;;;;;;3.45;1.40;;;;;;;14.22;49.86;101635.16;4950102;28;20103;-80
2022/04/19 10:55:31;;;;;;;3.80;1.80;;;;;;;14.67;49.48;101636.13;4957322;28;20054;-82
2022/04/19 10:58:23;;;;;;;3.55;1.20;;;;;;;14.78;48.79;101634.06;4973359;28;20042;-80
2022/04/19 11:01:59;;;;;;;5.10;1.60;;;;;;;14.83;49.53;101632.81;5112453;27;20447;-79
2022/04/19 11:04:38;;;;;;;3.25;1.50;;;;;;;14.85;49.00;101630.84;5089041;28;20031;-78
2022/04/19 11:07:40;;;;;;;3.85;1.45;;;;;;;14.68;50.70;101629.88;5082465;28;20047;-79
2022/04/19 11:10:06;;;;;;;2.42;1.60;;;;;;;14.99;49.56;101627.63;5103848;28;20629;-78
2022/04/19 11:12:58;;;;;;;2.13;1.10;;;;;;;15.33;47.58;101629.50;5059778;28;20029;-82
2022/04/19 11:15:41;;;;;;;4.43;1.20;;;;;;;14.75;49.95;101623.81;5039827;28;20047;-80
2022/04/19 11:18:23;;;;;;;2.70;1.58;;;;;;;15.13;48.30;101629.72;5088049;28;20548;-78
2022/04/19 11:20:49;;;;;;;5.32;0.90;;;;;;;15.30;47.90;101630.66;5084489;28;20070;-79
2022/04/19 11:23:21;;;;;;;3.22;1.20;;;;;;;15.49;47.47;101640.19;5082935;28;20043;-79
2022/04/19 11:25:48;;;;;;;3.45;1.60;;;;;;;15.62;47.11;101631.81;5094378;28;20033;-80
2022/04/19 11:28:30;;;;;;;2.13;1.35;;;;;;;15.55;47.28;101628.16;5079538;28;20036;-78
2022/04/19 11:30:55;;;;;;;4.88;1.40;;;;;;;15.51;47.69;101621.53;5084912;28;20051;-79
2022/04/19 11:33:22;;;;;;;2.40;1.20;;;;;;;14.96;48.79;101620.84;5064557;28;20064;-80
2022/04/19 11:36:02;;;;;;;2.60;1.10;;;;;;;15.65;48.11;101628.03;5080161;28;20128;-78
2022/04/19 11:38:33;;;;;;;2.70;1.25;;;;;;;15.54;48.77;101624.69;5081368;28;20436;-78
2022/04/19 11:46:45;;;;;;;2.92;2.13;;;;;;;15.97;48.18;101616.75;5084571;28;20472;-80
2022/04/19 11:49:20;;;;;;;2.33;1.60;;;;;;;15.53;48.77;101622.19;5069446;28;20105;-81
2022/04/19 11:51:47;;;;;;;4.10;1.50;;;;;;;16.15;49.94;101614.00;5104679;28;20032;-80
2022/04/19 11:54:21;;;;;;;4.15;1.50;;;;;;;15.94;46.63;101610.00;5104253;28;20028;-79
2022/04/19 11:56:54;;;;;;;2.10;1.38;;;;;;;16.01;47.22;101615.47;5089216;28;20070;-80
2022/04/19 11:59:29;;;;;;;2.17;1.38;;;;;;;15.65;46.32;101615.66;5069494;28;20028;-81
2022/04/19 12:01:56;;;;;;;1.15;0.68;;;;;;;15.96;45.96;101615.13;5085920;28;20029;-81
2022/04/19 12:04:22;;;;;;;1.90;0.77;;;;;;;16.19;44.54;101622.47;5087384;28;20067;-79
2022/04/19 12:06:52;;;;;;;2.05;0.93;;;;;;;16.00;46.68;101605.06;5077237;28;20037;-79
2022/04/19 12:09:19;;;;;;;2.45;1.23;;;;;;;16.23;46.01;101610.56;5076588;28;20032;-78
2022/04/19 12:11:47;;;;;;;3.22;1.30;;;;;;;16.15;46.85;101622.78;5065192;28;20091;-79
2022/04/19 12:14:48;;;;;;;2.30;1.30;;;;;;;16.02;48.02;101608.34;5056770;28;20104;-80
2022/04/19 12:17:18;;;;;;;2.03;1.10;;;;;;;16.20;43.72;101600.28;5048211;28;20044;-81